createdAt,value
2022-08-09T00:00:12.200Z,20.64
2022-08-09T00:02:47.370Z,20.67
2022-08-09T00:06:15.933Z,20.53
2022-08-09T00:08:11.109Z,20.43
2022-08-09T00:10:40.674Z,20.43
2022-08-09T00:13:17.488Z,20.43
2022-08-09T00:15:59.468Z,20.39
2022-08-09T00:18:35.694Z,20.37
2022-08-09T00:21:07.885Z,20.20
2022-08-09T00:23:56.330Z,20.21
2022-08-09T00:26:30.157Z,20.13
2022-08-09T00:29:12.160Z,20.09
2022-08-09T00:31:58.495Z,20.10
2022-08-09T00:34:32.602Z,20.09
2022-08-09T00:37:02.122Z,20.18
2022-08-09T00:40:08.937Z,20.14
2022-08-09T00:44:10.712Z,20.11
2022-08-09T00:45:15.690Z,20.02
2022-08-09T00:47:45.359Z,20.02
2022-08-09T00:50:16.052Z,20.00
2022-08-09T00:52:44.719Z,19.86
2022-08-09T00:55:32.802Z,19.80
2022-08-09T00:58:03.289Z,19.71
2022-08-09T01:00:35.366Z,19.69
2022-08-09T01:03:15.487Z,19.65
2022-08-09T01:05:54.789Z,19.58
2022-08-09T01:08:30.655Z,19.55
2022-08-09T01:11:09.560Z,19.46
2022-08-09T01:13:58.779Z,19.64
2022-08-09T01:16:36.001Z,19.70
2022-08-09T01:19:16.941Z,19.73
2022-08-09T01:22:16.458Z,19.67
2022-08-09T01:24:55.677Z,19.51
2022-08-09T01:27:29.374Z,19.41
2022-08-09T01:30:01.617Z,19.41
2022-08-09T01:32:35.952Z,19.40
2022-08-09T01:35:29.022Z,19.38
2022-08-09T01:38:10.190Z,19.38
2022-08-09T01:40:43.626Z,19.42
2022-08-09T01:43:14.592Z,19.44
2022-08-09T01:45:47.795Z,19.42
2022-08-09T01:48:29.848Z,19.47
2022-08-09T01:51:02.597Z,19.45
2022-08-09T01:53:41.673Z,19.34
2022-08-09T01:56:12.319Z,19.35
2022-08-09T01:58:49.152Z,19.30
2022-08-09T02:01:19.946Z,19.28
2022-08-09T02:03:51.583Z,19.29
2022-08-09T02:06:45.404Z,19.18
2022-08-09T02:09:25.173Z,19.10
2022-08-09T02:11:55.037Z,19.12
2022-08-09T02:14:30.211Z,19.17
2022-08-09T02:17:29.425Z,19.18
2022-08-09T02:19:49.310Z,19.19
2022-08-09T02:22:34.869Z,19.19
2022-08-09T02:25:09.775Z,19.13
2022-08-09T02:28:00.652Z,19.00
2022-08-09T02:30:39.097Z,19.01
2022-08-09T02:33:14.402Z,18.95
2022-08-09T02:36:02.926Z,18.95
2022-08-09T02:38:35.595Z,18.88
2022-08-09T02:41:09.762Z,18.84
2022-08-09T02:43:53.772Z,18.79
2022-08-09T02:46:28.784Z,18.80
2022-08-09T02:49:02.778Z,18.84
2022-08-09T02:51:40.069Z,18.80
2022-08-09T02:54:13.934Z,18.80
2022-08-09T02:56:51.316Z,18.79
2022-08-09T02:59:36.444Z,18.70
2022-08-09T03:02:11.992Z,18.58
2022-08-09T03:04:50.834Z,18.55
2022-08-09T03:07:21.250Z,18.68
2022-08-09T03:09:54.059Z,18.74
2022-08-09T03:12:27.455Z,18.77
2022-08-09T03:14:58.061Z,18.80
2022-08-09T03:17:29.650Z,18.76
2022-08-09T03:20:05.133Z,18.76
2022-08-09T03:22:44.910Z,18.76
2022-08-09T03:25:56.592Z,18.73
2022-08-09T03:28:11.318Z,18.73
2022-08-09T03:30:43.512Z,18.60
2022-08-09T03:33:18.921Z,18.55
2022-08-09T03:36:13.003Z,18.45
2022-08-09T03:38:43.569Z,18.41
2022-08-09T03:41:16.322Z,18.45
2022-08-09T03:44:03.306Z,18.40
2022-08-09T03:46:37.114Z,18.46
2022-08-09T03:49:09.590Z,18.48
2022-08-09T03:51:58.775Z,18.45
2022-08-09T03:54:32.805Z,18.37
2022-08-09T03:57:18.099Z,18.37
2022-08-09T03:59:54.312Z,18.36
2022-08-09T04:02:28.563Z,18.35
2022-08-09T04:05:05.854Z,18.35
2022-08-09T04:07:52.424Z,18.37
2022-08-09T04:10:29.296Z,18.32
2022-08-09T04:13:04.138Z,18.24
2022-08-09T04:16:18.265Z,18.23
2022-08-09T04:18:25.148Z,18.24
2022-08-09T04:20:55.915Z,18.27
2022-08-09T04:23:25.810Z,18.32
2022-08-09T04:25:55.451Z,18.35
2022-08-09T04:28:34.164Z,18.30
2022-08-09T04:31:07.971Z,18.26
2022-08-09T04:33:51.869Z,18.26
2022-08-09T04:36:27.883Z,18.34
2022-08-09T04:38:59.100Z,18.34
2022-08-09T04:41:33.058Z,18.29
2022-08-09T04:44:07.252Z,18.20
2022-08-09T04:46:58.219Z,18.29
2022-08-09T04:49:52.755Z,18.24
2022-08-09T04:52:26.438Z,18.24
2022-08-09T04:54:56.211Z,18.26
2022-08-09T04:57:25.405Z,18.27
2022-08-09T04:59:56.091Z,18.35
2022-08-09T05:02:27.238Z,18.36
2022-08-09T05:04:57.089Z,18.41
2022-08-09T05:07:31.722Z,18.38
2022-08-09T05:10:02.396Z,18.37
2022-08-09T05:12:33.050Z,18.37
2022-08-09T05:15:11.589Z,18.35
2022-08-09T05:18:50.510Z,18.41
2022-08-09T05:20:30.880Z,18.41
2022-08-09T05:23:55.415Z,18.41
2022-08-09T05:25:50.733Z,18.43
2022-08-09T05:28:20.979Z,18.48
2022-08-09T05:30:51.550Z,18.52
2022-08-09T05:33:26.345Z,18.56
2022-08-09T05:36:04.279Z,18.59
2022-08-09T05:38:39.116Z,18.63
2022-08-09T05:41:12.645Z,18.67
2022-08-09T05:43:45.309Z,18.74
2022-08-09T05:46:18.610Z,18.81
2022-08-09T05:48:48.586Z,18.86
2022-08-09T05:51:43.225Z,18.87
2022-08-09T05:54:17.916Z,18.89
2022-08-09T05:56:55.191Z,18.95
2022-08-09T05:59:25.571Z,18.99
2022-08-09T06:01:58.971Z,19.04
2022-08-09T06:04:34.818Z,18.98
2022-08-09T06:07:04.180Z,19.04
2022-08-09T06:09:54.521Z,19.06
2022-08-09T06:12:22.981Z,19.11
2022-08-09T06:14:55.277Z,19.20
2022-08-09T06:17:39.778Z,19.31
2022-08-09T06:20:10.650Z,19.38
2022-08-09T06:22:40.397Z,19.44
2022-08-09T06:25:16.268Z,19.52
2022-08-09T06:27:51.867Z,19.60
2022-08-09T06:30:20.931Z,19.60
2022-08-09T06:33:13.539Z,19.66
2022-08-09T06:35:56.954Z,19.75
2022-08-09T06:38:32.309Z,19.84
2022-08-09T06:41:12.455Z,19.91
2022-08-09T06:43:47.912Z,19.96
2022-08-09T06:46:39.233Z,19.98
2022-08-09T06:49:05.847Z,20.08
2022-08-09T06:51:39.100Z,20.15
2022-08-09T06:54:11.820Z,20.22
2022-08-09T06:56:46.252Z,20.27
2022-08-09T07:00:50.575Z,20.37
2022-08-09T07:02:05.129Z,20.44
2022-08-09T07:04:34.434Z,20.52
2022-08-09T07:07:04.699Z,20.60
2022-08-09T07:09:57.106Z,20.67
2022-08-09T07:12:38.509Z,20.75
2022-08-09T07:15:54.014Z,20.80
2022-08-09T07:18:02.296Z,20.88
2022-08-09T07:20:32.001Z,20.95
2022-08-09T07:23:00.651Z,20.99
2022-08-09T07:25:30.615Z,21.08
2022-08-09T07:28:09.523Z,21.14
2022-08-09T07:30:37.996Z,21.22
2022-08-09T07:33:10.281Z,21.30
2022-08-09T07:35:54.387Z,21.38
2022-08-09T07:38:24.166Z,21.45
2022-08-09T07:41:12.981Z,21.51
2022-08-09T07:43:50.160Z,21.58
2022-08-09T07:46:27.862Z,21.52
2022-08-09T07:48:59.396Z,21.70
2022-08-09T07:52:05.749Z,21.80
2022-08-09T07:54:19.155Z,21.89
2022-08-09T07:56:56.884Z,21.93
2022-08-09T07:59:34.773Z,21.99
2022-08-09T08:02:19.467Z,22.08
2022-08-09T08:04:49.443Z,22.18
2022-08-09T08:08:44.013Z,22.28
2022-08-09T08:10:12.283Z,22.38
2022-08-09T08:12:45.540Z,22.44
2022-08-09T08:15:24.338Z,22.55
2022-08-09T08:17:58.231Z,22.66
2022-08-09T08:20:33.173Z,22.78
2022-08-09T08:23:16.838Z,22.84
2022-08-09T08:25:48.513Z,22.91
2022-08-09T08:28:26.210Z,22.99
2022-08-09T08:31:13.904Z,23.08
2022-08-09T08:33:53.016Z,23.14
2022-08-09T08:36:29.512Z,23.26
2022-08-09T08:39:00.483Z,23.37
2022-08-09T08:41:50.398Z,23.43
2022-08-09T08:44:23.043Z,23.57
2022-08-09T08:47:02.580Z,23.75
2022-08-09T08:49:38.949Z,23.89
2022-08-09T08:52:57.491Z,24.09
2022-08-09T08:55:13.638Z,24.29
2022-08-09T08:57:56.490Z,24.43
2022-08-09T09:00:27.648Z,24.59
2022-08-09T09:03:11.408Z,24.74
2022-08-09T09:06:00.787Z,24.86
2022-08-09T09:08:38.067Z,24.93
2022-08-09T09:11:17.631Z,24.90
2022-08-09T09:13:56.370Z,25.05
2022-08-09T09:16:31.880Z,25.23
2022-08-09T09:22:04.108Z,25.46
2022-08-09T09:24:37.868Z,25.50
2022-08-09T09:27:09.140Z,25.67
2022-08-09T09:30:10.678Z,25.85
2022-08-09T09:32:40.122Z,25.99
2022-08-09T09:35:12.925Z,26.13
2022-08-09T09:37:46.948Z,26.28
2022-08-09T09:40:17.748Z,26.50
2022-08-09T09:42:56.626Z,26.89
2022-08-09T09:45:29.295Z,27.09
2022-08-09T09:48:05.059Z,26.93
2022-08-09T09:50:50.704Z,27.20
2022-08-09T09:53:21.563Z,27.60
2022-08-09T09:56:05.403Z,27.70
2022-08-09T09:58:48.255Z,28.02
2022-08-09T10:01:31.352Z,28.24
2022-08-09T10:04:13.852Z,28.29
2022-08-09T10:06:52.063Z,28.40
2022-08-09T10:09:24.242Z,28.75
2022-08-09T10:12:14.887Z,29.10
2022-08-09T10:14:51.316Z,29.34
2022-08-09T10:17:39.701Z,29.41
2022-08-09T10:20:32.948Z,29.31
2022-08-09T10:23:20.390Z,29.54
2022-08-09T10:26:07.185Z,29.76
2022-08-09T10:28:41.702Z,29.76
2022-08-09T10:34:09.868Z,30.22
2022-08-09T10:36:50.167Z,30.23
2022-08-09T10:39:20.970Z,30.48
2022-08-09T10:41:49.556Z,30.47
2022-08-09T10:44:21.891Z,30.70
2022-08-09T10:48:17.473Z,30.71
2022-08-09T10:50:30.761Z,30.48
2022-08-09T10:53:10.105Z,30.75
2022-08-09T10:55:58.306Z,31.32
2022-08-09T10:58:33.707Z,31.58
2022-08-09T11:03:06.530Z,31.16
2022-08-09T11:04:19.715Z,30.65
2022-08-09T11:07:57.145Z,31.24
2022-08-09T11:10:38.378Z,31.72
2022-08-09T11:13:49.084Z,31.51
2022-08-09T11:16:35.557Z,31.27
2022-08-09T11:19:09.423Z,30.83
2022-08-09T11:22:10.504Z,30.87
2022-08-09T11:25:08.125Z,31.48
2022-08-09T11:28:05.432Z,31.47
2022-08-09T11:30:37.914Z,31.76
2022-08-09T11:33:12.878Z,31.83
2022-08-09T11:35:50.031Z,31.97
2022-08-09T11:38:32.002Z,32.38
2022-08-09T11:41:05.656Z,32.17
2022-08-09T11:43:43.548Z,32.13
2022-08-09T11:46:13.353Z,32.61
2022-08-09T11:48:57.703Z,32.53
2022-08-09T11:53:02.418Z,32.34
2022-08-09T11:54:28.542Z,32.42
2022-08-09T11:58:00.631Z,32.73
2022-08-09T12:00:31.705Z,33.20
2022-08-09T12:03:32.075Z,33.38
2022-08-09T12:05:53.681Z,33.40
2022-08-09T12:08:24.914Z,33.17
2022-08-09T12:10:56.314Z,33.24
2022-08-09T12:14:10.258Z,33.58
2022-08-09T12:16:37.279Z,33.93
2022-08-09T12:19:09.996Z,34.31
2022-08-09T12:21:48.585Z,34.63
2022-08-09T12:24:25.646Z,34.87
2022-08-09T12:28:59.578Z,35.00
2022-08-09T12:30:01.629Z,34.77
2022-08-09T12:32:45.469Z,34.41
2022-08-09T12:35:19.386Z,34.51
2022-08-09T12:37:52.323Z,33.95
2022-08-09T12:40:24.871Z,33.40
2022-08-09T12:42:54.449Z,33.09
2022-08-09T12:45:32.206Z,33.45
2022-08-09T12:48:04.256Z,34.21
2022-08-09T12:50:36.142Z,34.34
2022-08-09T12:53:08.791Z,34.38
2022-08-09T12:56:14.284Z,34.16
2022-08-09T12:58:34.551Z,34.23
2022-08-09T13:01:23.157Z,34.44
2022-08-09T13:04:01.771Z,34.74
2022-08-09T13:06:35.569Z,35.07
2022-08-09T13:09:09.867Z,35.59
2022-08-09T13:11:42.523Z,35.78
2022-08-09T13:14:40.697Z,35.72
2022-08-09T13:17:05.245Z,35.37
2022-08-09T13:20:08.775Z,35.37
2022-08-09T13:22:36.418Z,34.94
2022-08-09T13:25:12.186Z,34.50
2022-08-09T13:27:54.351Z,34.43
2022-08-09T13:31:11.559Z,34.43
2022-08-09T13:33:23.643Z,34.43
2022-08-09T13:36:41.465Z,34.29
2022-08-09T13:38:57.854Z,34.39
2022-08-09T13:41:52.125Z,34.64
2022-08-09T13:44:17.517Z,35.00
2022-08-09T13:47:25.551Z,34.71
2022-08-09T13:49:55.768Z,34.51
2022-08-09T13:52:26.060Z,34.88
2022-08-09T13:55:00.667Z,34.67
2022-08-09T13:57:39.878Z,34.38
2022-08-09T14:00:15.576Z,34.33
2022-08-09T14:03:03.810Z,34.28
2022-08-09T14:06:00.291Z,34.10
2022-08-09T14:08:26.883Z,34.17
2022-08-09T14:10:59.633Z,34.34
2022-08-09T14:14:23.471Z,34.63
2022-08-09T14:16:28.027Z,34.79
2022-08-09T14:18:58.438Z,34.68
2022-08-09T14:21:29.298Z,34.87
2022-08-09T14:24:01.305Z,34.83
2022-08-09T14:26:41.033Z,34.66
2022-08-09T14:30:04.089Z,34.65
2022-08-09T14:32:06.104Z,34.26
2022-08-09T14:34:40.864Z,34.24
2022-08-09T14:37:10.664Z,34.64
2022-08-09T14:39:46.363Z,34.64
2022-08-09T14:42:38.968Z,34.34
2022-08-09T14:46:39.557Z,34.40
2022-08-09T14:48:02.102Z,34.35
2022-08-09T14:50:32.868Z,34.18
2022-08-09T14:53:01.927Z,34.22
2022-08-09T14:55:32.709Z,34.46
2022-08-09T14:58:05.661Z,34.57
2022-08-09T15:00:36.943Z,34.22
2022-08-09T15:03:07.856Z,33.90
2022-08-09T15:05:38.931Z,33.78
2022-08-09T15:08:10.186Z,33.77
2022-08-09T15:10:41.156Z,33.67
2022-08-09T15:13:12.895Z,33.95
2022-08-09T15:15:43.716Z,34.42
2022-08-09T15:18:14.519Z,34.85
2022-08-09T15:21:57.167Z,34.80
2022-08-09T15:24:09.367Z,34.28
2022-08-09T15:26:30.779Z,34.18
2022-08-09T15:29:05.061Z,34.53
2022-08-09T15:31:40.779Z,34.59
2022-08-09T15:34:33.114Z,34.60
2022-08-09T15:37:04.287Z,34.76
2022-08-09T15:39:44.006Z,34.75
2022-08-09T15:42:22.925Z,34.55
2022-08-09T15:44:53.136Z,34.77
2022-08-09T15:47:31.939Z,34.90
2022-08-09T15:50:15.091Z,34.73
2022-08-09T15:52:54.974Z,34.55
2022-08-09T15:55:34.480Z,34.26
2022-08-09T15:58:27.228Z,34.35
2022-08-09T16:00:58.002Z,34.46
2022-08-09T16:03:38.258Z,34.28
2022-08-09T16:06:27.319Z,34.34
2022-08-09T16:09:01.036Z,34.28
2022-08-09T16:11:33.039Z,34.46
2022-08-09T16:14:06.986Z,34.32
2022-08-09T16:16:42.060Z,34.41
2022-08-09T16:19:18.072Z,34.43
2022-08-09T16:21:51.976Z,34.13
2022-08-09T16:24:33.797Z,33.90
2022-08-09T16:27:04.866Z,33.62
2022-08-09T16:29:38.032Z,33.52
2022-08-09T16:32:35.134Z,33.33
2022-08-09T16:35:04.628Z,33.46
2022-08-09T16:37:53.351Z,33.34
2022-08-09T16:40:40.083Z,33.50
2022-08-09T16:43:10.433Z,33.53
2022-08-09T16:45:41.673Z,33.54
2022-08-09T16:48:40.588Z,33.48
2022-08-09T16:51:07.356Z,33.45
2022-08-09T16:54:09.022Z,33.14
2022-08-09T16:56:32.557Z,33.04
2022-08-09T16:59:06.552Z,33.01
2022-08-09T17:01:39.594Z,32.55
2022-08-09T17:04:25.522Z,32.62
2022-08-09T17:08:41.584Z,32.48
2022-08-09T17:09:47.750Z,32.42
2022-08-09T17:12:17.441Z,32.18
2022-08-09T17:14:47.757Z,32.22
2022-08-09T17:17:27.065Z,32.19
2022-08-09T17:20:28.363Z,32.19
2022-08-09T17:22:52.276Z,32.02
2022-08-09T17:25:23.489Z,31.97
2022-08-09T17:27:55.099Z,31.97
2022-08-09T17:30:25.768Z,31.88
2022-08-09T17:33:01.013Z,31.73
2022-08-09T17:35:41.335Z,31.62
2022-08-09T17:38:32.349Z,31.49
2022-08-09T17:41:02.209Z,31.27
2022-08-09T17:43:37.044Z,31.08
2022-08-09T17:46:09.078Z,30.94
2022-08-09T17:48:52.277Z,30.72
2022-08-09T17:51:23.398Z,30.58
2022-08-09T17:53:55.918Z,30.53
2022-08-09T17:56:28.846Z,30.45
2022-08-09T17:59:08.869Z,30.40
2022-08-09T18:02:03.572Z,30.33
2022-08-09T18:04:27.286Z,30.20
2022-08-09T18:06:57.309Z,30.01
2022-08-09T18:09:40.918Z,29.89
2022-08-09T18:12:17.424Z,29.76
2022-08-09T18:14:55.171Z,29.71
2022-08-09T18:18:02.405Z,29.73
2022-08-09T18:20:57.357Z,29.69
2022-08-09T18:23:07.133Z,29.56
2022-08-09T18:25:52.811Z,29.40
2022-08-09T18:30:39.326Z,29.26
2022-08-09T18:31:12.841Z,29.13
2022-08-09T18:33:42.493Z,29.11
2022-08-09T18:36:25.633Z,29.06
2022-08-09T18:39:03.338Z,29.02
2022-08-09T18:41:35.113Z,28.97
2022-08-09T18:44:12.421Z,28.93
2022-08-09T18:46:47.970Z,28.87
2022-08-09T18:49:21.131Z,28.78
2022-08-09T18:51:57.766Z,28.69
2022-08-09T18:54:29.620Z,28.58
2022-08-09T18:57:06.141Z,28.38
2022-08-09T18:59:48.837Z,28.32
2022-08-09T19:02:19.139Z,28.33
2022-08-09T19:05:04.257Z,28.33
2022-08-09T19:07:37.384Z,28.14
2022-08-09T19:10:15.528Z,28.13
2022-08-09T19:12:50.922Z,28.08
2022-08-09T19:15:28.155Z,28.01
2022-08-09T19:17:58.609Z,27.82
2022-08-09T19:20:33.821Z,27.82
2022-08-09T19:23:05.373Z,27.74
2022-08-09T19:26:00.805Z,27.74
2022-08-09T19:28:28.852Z,27.68
2022-08-09T19:30:57.420Z,27.61
2022-08-09T19:33:26.459Z,27.44
2022-08-09T19:35:57.371Z,27.50
2022-08-09T19:38:27.459Z,27.50
2022-08-09T19:40:59.924Z,27.41
2022-08-09T19:44:00.302Z,27.34
2022-08-09T19:46:34.972Z,27.30
2022-08-09T19:50:07.863Z,27.05
2022-08-09T19:51:57.313Z,27.01
2022-08-09T19:54:26.506Z,26.84
2022-08-09T19:56:58.370Z,26.65
2022-08-09T19:59:57.726Z,26.70
2022-08-09T20:04:09.629Z,26.64
2022-08-09T20:05:10.282Z,26.45
2022-08-09T20:07:56.722Z,26.38
2022-08-09T20:10:34.707Z,26.45
2022-08-09T20:13:08.217Z,26.32
2022-08-09T20:16:35.605Z,26.18
2022-08-09T20:18:27.825Z,26.05
2022-08-09T20:20:57.853Z,25.92
2022-08-09T20:23:39.225Z,25.97
2022-08-09T20:26:12.957Z,25.99
2022-08-09T20:28:49.774Z,25.95
2022-08-09T20:31:18.773Z,25.84
2022-08-09T20:33:52.332Z,25.70
2022-08-09T20:36:28.262Z,25.71
2022-08-09T20:39:28.696Z,25.65
2022-08-09T20:41:48.871Z,25.71
2022-08-09T20:44:26.556Z,25.68
2022-08-09T20:46:57.924Z,25.70
2022-08-09T20:49:28.638Z,25.67
2022-08-09T20:51:57.686Z,25.65
2022-08-09T20:54:29.828Z,25.63
2022-08-09T20:56:59.016Z,25.66
2022-08-09T21:00:20.670Z,25.68
2022-08-09T21:02:19.304Z,25.65
2022-08-09T21:05:53.118Z,25.62
2022-08-09T21:07:40.424Z,25.57
2022-08-09T21:10:12.305Z,25.50
2022-08-09T21:15:34.899Z,25.25
2022-08-09T21:18:11.623Z,25.28
2022-08-09T21:20:54.228Z,25.28
2022-08-09T21:23:26.590Z,25.25
2022-08-09T21:26:12.801Z,25.24
2022-08-09T21:28:55.733Z,25.20
2022-08-09T21:31:49.138Z,25.24
2022-08-09T21:34:28.691Z,25.18
2022-08-09T21:36:59.047Z,25.15
2022-08-09T21:39:28.275Z,25.12
2022-08-09T21:42:12.179Z,25.06
2022-08-09T21:44:42.575Z,25.05
2022-08-09T21:47:18.179Z,24.97
2022-08-09T21:49:48.035Z,24.91
2022-08-09T21:52:20.600Z,24.89
2022-08-09T21:54:59.562Z,24.77
2022-08-09T21:57:38.712Z,24.77
2022-08-09T22:00:31.930Z,24.69
2022-08-09T22:03:06.478Z,24.69
2022-08-09T22:05:37.416Z,24.70
2022-08-09T22:08:13.843Z,24.68
2022-08-09T22:11:50.136Z,24.68
2022-08-09T22:13:37.532Z,24.56
2022-08-09T22:16:09.386Z,24.52
2022-08-09T22:18:54.456Z,24.42
2022-08-09T22:21:44.666Z,24.46
2022-08-09T22:24:17.328Z,24.42
2022-08-09T22:26:51.524Z,24.42
2022-08-09T22:29:26.835Z,24.34
2022-08-09T22:32:02.048Z,24.27
2022-08-09T22:34:32.310Z,24.26
2022-08-09T22:37:01.677Z,24.23
2022-08-09T22:39:57.816Z,24.18
2022-08-09T22:42:22.324Z,24.15
2022-08-09T22:48:06.244Z,24.10
2022-08-09T22:48:11.731Z,23.93
2022-08-09T22:50:33.092Z,23.93
2022-08-09T22:53:03.553Z,23.88
2022-08-09T22:56:06.689Z,23.79
2022-08-09T22:58:32.340Z,23.82
2022-08-09T23:01:03.973Z,23.74
2022-08-09T23:04:04.046Z,23.69
2022-08-09T23:06:30.022Z,23.60
2022-08-09T23:09:07.451Z,23.61
2022-08-09T23:11:36.487Z,23.55
2022-08-09T23:14:09.911Z,23.54
2022-08-09T23:16:46.550Z,23.46
2022-08-09T23:19:15.447Z,23.44
2022-08-09T23:21:45.192Z,23.47
2022-08-09T23:24:14.437Z,23.36
2022-08-09T23:26:43.541Z,23.31
2022-08-09T23:29:13.758Z,23.24
2022-08-09T23:31:42.998Z,23.24
2022-08-09T23:34:11.443Z,23.20
2022-08-09T23:36:40.591Z,23.21
2022-08-09T23:39:10.355Z,23.16
2022-08-09T23:41:38.877Z,23.13
2022-08-09T23:44:07.640Z,23.06
2022-08-09T23:46:36.099Z,22.99
2022-08-09T23:49:05.868Z,22.99
2022-08-09T23:51:34.373Z,22.94
2022-08-09T23:54:03.726Z,22.78
2022-08-09T23:56:52.422Z,22.76
2022-08-09T23:59:25.867Z,22.76
